Time;durP1;ratioP1;P1;durP2;ratioP2;P2;SDS_P1;SDS_P2;PMS_P1;PMS_P2;Temp;Humidity;BMP_temperature;BMP_pressure;BME280_temperature;BME280_humidity;BME280_pressure;Samples;Min_cycle;Max_cycle;Signal;HPM_P1;HPM_P2
2024/04/20 00:00:24;;;;;;;0.47;0.30;;;;;;;;;;6207533;22;20084;-65
2024/04/20 00:02:53;;;;;;;7.63;3.13;;;;;;;;;;6209255;22;20002;-70
2024/04/20 00:05:22;;;;;;;5.15;1.67;;;;;;;;;;6209190;22;20005;-67
2024/04/20 00:07:50;;;;;;;;;;;;;;;;;;6190471;22;20098;-67
2024/04/20 00:10:20;;;;;;;1.17;0.60;;;;;;;;;;6207364;22;19925;-67
2024/04/20 00:12:51;;;;;;;2.80;1.05;;;;;;;;;;6208990;22;20444;-67
2024/04/20 00:15:19;;;;;;;5.07;0.90;;;;;;;;;;6208485;22;20057;-66
2024/04/20 00:17:47;;;;;;;0.68;0.50;;;;;;;;;;6195021;22;20020;-66
2024/04/20 00:20:16;;;;;;;2.05;0.40;;;;;;;;;;6209516;22;20005;-66
2024/04/20 00:22:44;;;;;;;0.85;0.50;;;;;;;;;;6207121;22;20008;-67
2024/04/20 00:25:12;;;;;;;0.75;0.45;;;;;;;;;;6207130;22;20013;-66
2024/04/20 00:27:40;;;;;;;0.77;0.40;;;;;;;;;;6194476;22;20020;-65
2024/04/20 00:30:12;;;;;;;2.53;0.47;;;;;;;;;;6205297;22;20020;-67
2024/04/20 00:32:40;;;;;;;0.77;0.38;;;;;;;;;;6209087;22;20001;-65
2024/04/20 00:35:09;;;;;;;2.85;0.80;;;;;;;;;;6207815;22;20001;-66
2024/04/20 00:37:37;;;;;;;1.00;0.50;;;;;;;;;;6199683;22;20236;-65
2024/04/20 00:40:06;;;;;;;1.55;0.63;;;;;;;;;;6200905;22;20017;-66
2024/04/20 00:42:34;;;;;;;0.50;0.30;;;;;;;;;;6211782;22;20005;-67
2024/04/20 00:45:03;;;;;;;2.25;0.50;;;;;;;;;;6207135;22;20002;-66
2024/04/20 00:47:36;;;;;;;0.90;0.43;;;;;;;;;;6222403;22;20085;-66
2024/04/20 00:50:04;;;;;;;0.93;0.40;;;;;;;;;;6248271;22;20734;-65
2024/04/20 00:52:33;;;;;;;1.58;0.52;;;;;;;;;;6254074;22;20142;-66
2024/04/20 00:55:01;;;;;;;;;;;;;;;;;;6256176;22;20015;-67
2024/04/20 00:57:31;;;;;;;0.93;0.32;;;;;;;;;;6248386;22;19931;-65
2024/04/20 00:59:59;;;;;;;1.30;0.32;;;;;;;;;;6247639;22;20701;-65
2024/04/20 01:02:28;;;;;;;1.35;0.43;;;;;;;;;;6254210;22;20545;-64
2024/04/20 01:04:59;;;;;;;1.45;0.35;;;;;;;;;;6258653;22;20018;-64
2024/04/20 01:07:28;;;;;;;0.30;0.30;;;;;;;;;;6247057;22;19997;-66
2024/04/20 01:09:56;;;;;;;0.98;0.43;;;;;;;;;;6245827;22;20434;-66
2024/04/20 01:12:25;;;;;;;1.85;0.30;;;;;;;;;;6254665;22;20065;-67
2024/04/20 01:14:53;;;;;;;1.15;0.47;;;;;;;;;;6252519;22;20048;-65
2024/04/20 01:17:21;;;;;;;0.55;0.40;;;;;;;;;;6253108;22;20019;-64
2024/04/20 01:19:49;;;;;;;1.70;0.30;;;;;;;;;;6244431;22;20064;-66
2024/04/20 01:22:21;;;;;;;1.20;0.40;;;;;;;;;;6255372;22;20015;-64
2024/04/20 01:24:49;;;;;;;4.60;0.55;;;;;;;;;;6258428;22;19996;-64
2024/04/20 01:27:20;;;;;;;;;;;;;;;;;;6246893;22;20001;-64
2024/04/20 01:29:49;;;;;;;0.65;0.50;;;;;;;;;;6248583;22;19957;-64
2024/04/20 01:32:17;;;;;;;1.83;0.30;;;;;;;;;;6253085;22;20080;-63
2024/04/20 01:34:45;;;;;;;0.75;0.40;;;;;;;;;;6253547;22;20020;-64
2024/04/20 01:37:13;;;;;;;3.25;0.50;;;;;;;;;;6245323;22;20044;-63
2024/04/20 01:39:44;;;;;;;0.40;0.38;;;;;;;;;;6248293;22;20005;-63
2024/04/20 01:42:12;;;;;;;1.20;0.40;;;;;;;;;;6253830;22;20001;-63
2024/04/20 01:44:43;;;;;;;0.35;0.25;;;;;;;;;;6252674;22;20012;-63
2024/04/20 01:47:12;;;;;;;0.30;0.30;;;;;;;;;;6246015;22;20478;-64
2024/04/20 01:49:40;;;;;;;0.32;0.30;;;;;;;;;;6247916;22;20001;-63
2024/04/20 01:52:08;;;;;;;0.47;0.30;;;;;;;;;;6256558;22;20084;-63
2024/04/20 01:54:36;;;;;;;1.98;0.30;;;;;;;;;;6257747;22;20016;-63
2024/04/20 01:57:05;;;;;;;0.40;0.28;;;;;;;;;;6247735;22;20045;-63
2024/04/20 01:59:34;;;;;;;0.50;0.32;;;;;;;;;;6256901;22;20012;-63
2024/04/20 02:02:05;;;;;;;3.25;0.47;;;;;;;;;;6252105;22;21261;-64
2024/04/20 02:04:33;;;;;;;1.83;0.60;;;;;;;;;;6251065;22;20390;-65
2024/04/20 02:07:02;;;;;;;0.80;0.30;;;;;;;;;;6256217;22;19997;-63
2024/04/20 02:09:32;;;;;;;2.83;0.57;;;;;;;;;;6253476;22;20471;-63
2024/04/20 02:12:01;;;;;;;4.35;0.40;;;;;;;;;;6255742;22;20041;-63
2024/04/20 02:14:29;;;;;;;1.17;0.40;;;;;;;;;;6217104;22;20001;-65
2024/04/20 02:16:57;;;;;;;3.75;0.47;;;;;;;;;;6205212;22;20034;-63
2024/04/20 02:19:28;;;;;;;2.00;0.73;;;;;;;;;;6206235;22;20041;-66
2024/04/20 02:21:57;;;;;;;4.53;0.50;;;;;;;;;;6208745;22;20012;-64
2024/04/20 02:24:26;;;;;;;2.35;0.60;;;;;;;;;;6193174;22;20008;-65
2024/04/20 02:26:54;;;;;;;2.92;0.55;;;;;;;;;;6204555;22;20009;-63
2024/04/20 02:29:22;;;;;;;0.77;0.47;;;;;;;;;;6203732;22;20005;-63
2024/04/20 02:31:51;;;;;;;4.78;0.50;;;;;;;;;;6211705;22;20005;-63
2024/04/20 02:34:20;;;;;;;;;;;;;;;;;;6193915;22;20001;-63
2024/04/20 02:36:50;;;;;;;1.90;0.65;;;;;;;;;;6203859;22;20325;-64
2024/04/20 02:39:19;;;;;;;2.08;0.47;;;;;;;;;;6205374;22;20016;-65
2024/04/20 02:41:47;;;;;;;2.28;0.50;;;;;;;;;;6205244;22;20016;-64
2024/04/20 02:44:16;;;;;;;1.55;0.50;;;;;;;;;;6196345;22;20016;-65
2024/04/20 02:46:44;;;;;;;0.57;0.20;;;;;;;;;;6200650;22;20009;-64
2024/04/20 02:49:12;;;;;;;0.50;0.30;;;;;;;;;;6203404;22;20042;-63
2024/04/20 02:51:40;;;;;;;1.17;0.50;;;;;;;;;;6205417;22;20017;-64
2024/04/20 02:54:11;;;;;;;1.55;0.50;;;;;;;;;;6198900;22;20020;-64
2024/04/20 02:56:40;;;;;;;2.15;0.50;;;;;;;;;;6197808;22;20097;-64
2024/04/20 02:59:08;;;;;;;1.95;0.38;;;;;;;;;;6203719;22;20020;-63
2024/04/20 03:01:36;;;;;;;1.38;0.60;;;;;;;;;;6205959;22;20005;-64
2024/04/20 03:04:05;;;;;;;1.15;0.40;;;;;;;;;;6196250;22;20005;-64
2024/04/20 03:06:33;;;;;;;1.02;0.35;;;;;;;;;;6194510;22;20168;-64
2024/04/20 03:09:01;;;;;;;2.20;0.50;;;;;;;;;;6210086;22;20041;-65
2024/04/20 03:11:32;;;;;;;1.40;0.40;;;;;;;;;;6205037;22;20016;-64
2024/04/20 03:14:01;;;;;;;1.25;0.43;;;;;;;;;;6217215;22;20098;-65
2024/04/20 03:16:29;;;;;;;4.38;0.40;;;;;;;;;;6240415;22;20001;-64
2024/04/20 03:18:57;;;;;;;3.35;0.40;;;;;;;;;;6253909;22;20094;-65
2024/04/20 03:21:25;;;;;;;0.43;0.22;;;;;;;;;;6250112;22;20079;-64
2024/04/20 03:24:03;;;;;;;0.77;0.30;;;;;;;;;;6246188;22;20040;-64
2024/04/20 03:26:34;;;;;;;1.30;0.47;;;;;;;;;;6241535;22;20015;-65
2024/04/20 03:29:02;;;;;;;1.02;0.43;;;;;;;;;;6251835;22;20011;-64
2024/04/20 03:31:31;;;;;;;0.73;0.30;;;;;;;;;;6253904;22;20017;-65
2024/04/20 03:34:00;;;;;;;2.22;0.45;;;;;;;;;;6246383;22;20009;-64
2024/04/20 03:36:28;;;;;;;2.13;0.55;;;;;;;;;;6241378;22;20004;-63
2024/04/20 03:38:56;;;;;;;1.85;0.40;;;;;;;;;;6253304;22;20008;-64
2024/04/20 03:41:24;;;;;;;3.83;0.63;;;;;;;;;;6256749;22;20519;-64
2024/04/20 03:43:55;;;;;;;0.82;0.40;;;;;;;;;;6236317;22;20081;-64
2024/04/20 03:46:23;;;;;;;3.00;0.38;;;;;;;;;;6204973;22;20103;-64
2024/04/20 03:48:52;;;;;;;2.10;0.45;;;;;;;;;;6200376;22;20033;-64
2024/04/20 03:51:20;;;;;;;4.22;0.47;;;;;;;;;;6206318;22;20078;-64
2024/04/20 03:53:48;;;;;;;3.20;0.32;;;;;;;;;;6201693;22;20113;-64
2024/04/20 03:56:16;;;;;;;0.93;0.43;;;;;;;;;;6203326;22;20025;-64
2024/04/20 03:58:45;;;;;;;3.15;0.45;;;;;;;;;;6199299;22;20156;-65
2024/04/20 04:01:16;;;;;;;5.18;0.52;;;;;;;;;;6208890;22;20009;-64
2024/04/20 04:03:44;;;;;;;3.17;0.47;;;;;;;;;;6202842;22;20122;-64
2024/04/20 04:06:12;;;;;;;1.75;0.50;;;;;;;;;;6209544;22;19997;-65
2024/04/20 04:08:41;;;;;;;3.22;0.60;;;;;;;;;;6198291;22;20013;-64
2024/04/20 04:11:09;;;;;;;2.58;0.68;;;;;;;;;;6207902;22;20041;-65
2024/04/20 04:13:37;;;;;;;3.67;0.57;;;;;;;;;;6201762;22;22390;-64
2024/04/20 04:16:06;;;;;;;6.50;0.55;;;;;;;;;;6205281;22;20016;-64
2024/04/20 04:18:37;;;;;;;2.30;0.55;;;;;;;;;;6195616;22;20001;-65
2024/04/20 04:21:09;;;;;;;1.92;0.38;;;;;;;;;;6205225;22;20005;-64
2024/04/20 04:23:37;;;;;;;5.65;0.75;;;;;;;;;;6198790;22;20005;-64
2024/04/20 04:26:05;;;;;;;3.03;0.57;;;;;;;;;;6252790;22;20004;-64
2024/04/20 04:28:34;;;;;;;5.28;0.80;;;;;;;;;;6239409;22;20071;-64
2024/04/20 04:31:02;;;;;;;5.45;0.80;;;;;;;;;;6252313;22;20074;-64
2024/04/20 04:33:30;;;;;;;5.13;0.70;;;;;;;;;;6248679;22;20000;-64
2024/04/20 04:36:02;;;;;;;2.13;0.55;;;;;;;;;;6208834;22;20001;-64
2024/04/20 04:38:32;;;;;;;4.47;0.60;;;;;;;;;;6194104;22;20013;-63
2024/04/20 04:41:00;;;;;;;1.95;0.45;;;;;;;;;;6205767;22;19998;-66
2024/04/20 04:43:28;;;;;;;3.17;0.60;;;;;;;;;;6198815;22;20013;-65
2024/04/20 04:45:57;;;;;;;3.33;0.75;;;;;;;;;;6209475;22;20041;-64
2024/04/20 04:48:26;;;;;;;5.05;0.52;;;;;;;;;;6199946;22;20013;-65
2024/04/20 04:50:55;;;;;;;4.20;0.80;;;;;;;;;;6205181;22;20040;-64
2024/04/20 04:53:26;;;;;;;3.08;0.50;;;;;;;;;;6200078;22;20125;-65
2024/04/20 04:55:54;;;;;;;3.63;0.65;;;;;;;;;;6205158;22;20623;-63
2024/04/20 04:58:23;;;;;;;2.95;0.50;;;;;;;;;;6200148;22;20072;-63
2024/04/20 05:00:51;;;;;;;2.83;0.65;;;;;;;;;;6204774;22;20016;-64
2024/04/20 05:03:19;;;;;;;1.98;0.47;;;;;;;;;;6203212;22;20010;-64
2024/04/20 05:05:50;;;;;;;1.73;0.50;;;;;;;;;;6250296;22;20015;-64
2024/04/20 05:08:20;;;;;;;5.05;0.47;;;;;;;;;;6250549;22;20016;-64
2024/04/20 05:10:51;;;;;;;1.08;0.38;;;;;;;;;;6252335;22;20011;-64
2024/04/20 05:13:20;;;;;;;4.75;0.70;;;;;;;;;;6248069;22;20183;-64
2024/04/20 05:15:48;;;;;;;4.20;0.52;;;;;;;;;;6207113;22;20474;-64
2024/04/20 05:18:17;;;;;;;7.47;0.73;;;;;;;;;;6204361;22;20029;-64
2024/04/20 05:20:45;;;;;;;3.58;0.55;;;;;;;;;;6200129;22;20020;-62
2024/04/20 05:23:14;;;;;;;3.75;0.85;;;;;;;;;;6205692;22;19997;-63
2024/04/20 05:25:43;;;;;;;3.28;0.50;;;;;;;;;;6248782;22;20059;-64
2024/04/20 05:28:14;;;;;;;14.38;5.65;;;;;;;;;;6251847;22;20004;-64
2024/04/20 05:30:45;;;;;;;13.38;3.05;;;;;;;;;;6243944;22;20008;-64
2024/04/20 05:33:13;;;;;;;7.88;2.05;;;;;;;;;;6251410;22;20001;-63
2024/04/20 05:35:42;;;;;;;4.63;0.82;;;;;;;;;;6245385;22;20011;-65
2024/04/20 05:38:16;;;;;;;2.78;0.60;;;;;;;;;;6252917;22;20005;-66
2024/04/20 05:40:47;;;;;;;6.13;0.68;;;;;;;;;;6246130;22;20001;-66
2024/04/20 05:43:36;;;;;;;2.55;0.63;;;;;;;;;;6250443;22;20001;-64
2024/04/20 05:46:05;;;;;;;2.90;0.90;;;;;;;;;;6254071;22;20084;-65
2024/04/20 05:48:35;;;;;;;2.90;0.45;;;;;;;;;;6243750;22;20283;-65
2024/04/20 05:51:03;;;;;;;4.57;0.77;;;;;;;;;;6250995;22;20125;-64
2024/04/20 05:53:32;;;;;;;4.40;0.50;;;;;;;;;;6234986;22;20009;-66
2024/04/20 05:56:00;;;;;;;1.65;0.43;;;;;;;;;;6200281;22;20001;-64
2024/04/20 05:58:34;;;;;;;3.80;0.55;;;;;;;;;;6195250;22;20005;-64
2024/04/20 06:01:02;;;;;;;3.95;0.68;;;;;;;;;;6204202;22;20006;-64
2024/04/20 06:16:44;;;;;;;1.35;0.35;;;;;;;;;;5320532;25;20483;-64
2024/04/20 06:19:12;;;;;;;5.32;0.70;;;;;;;;;;5273348;26;20046;-63
2024/04/20 06:21:41;;;;;;;2.65;0.47;;;;;;;;;;5255010;26;19999;-65
2024/04/20 06:24:18;;;;;;;2.72;0.80;;;;;;;;;;5244376;26;20023;-64
2024/04/20 06:26:50;;;;;;;1.47;0.40;;;;;;;;;;5193675;27;20040;-65
2024/04/20 06:29:23;;;;;;;8.93;0.70;;;;;;;;;;5197916;26;20096;-64
2024/04/20 06:31:55;;;;;;;2.42;0.55;;;;;;;;;;5197850;26;20063;-65
2024/04/20 06:34:26;;;;;;;7.43;0.98;;;;;;;;;;5165039;26;20047;-64
2024/04/20 06:36:55;;;;;;;9.85;3.40;;;;;;;;;;5185708;27;20011;-65
2024/04/20 06:39:23;;;;;;;6.53;1.20;;;;;;;;;;5194755;27;20007;-66
2024/04/20 06:41:54;;;;;;;3.67;0.95;;;;;;;;;;5198938;26;20003;-65
2024/04/20 06:44:28;;;;;;;4.53;0.70;;;;;;;;;;5169156;26;20004;-65
2024/04/20 06:47:06;;;;;;;1.55;0.60;;;;;;;;;;5199722;27;20015;-64
2024/04/20 06:49:35;;;;;;;4.35;0.80;;;;;;;;;;5200490;27;20304;-64
2024/04/20 06:52:08;;;;;;;2.78;0.60;;;;;;;;;;5206925;27;20000;-65
2024/04/20 06:54:37;;;;;;;0.52;0.20;;;;;;;;;;5189337;26;20018;-65
2024/04/20 06:57:06;;;;;;;1.50;0.50;;;;;;;;;;5232422;26;20018;-65
2024/04/20 06:59:34;;;;;;;3.25;0.77;;;;;;;;;;5229099;26;20110;-64
2024/04/20 07:02:08;;;;;;;;;;;;;;;;;;5235773;26;20006;-66
2024/04/20 07:04:40;;;;;;;3.08;0.63;;;;;;;;;;5204876;26;20241;-63
2024/04/20 07:07:12;;;;;;;6.93;0.80;;;;;;;;;;5204735;27;20018;-64
2024/04/20 07:09:40;;;;;;;4.35;0.90;;;;;;;;;;5179797;27;20008;-65
2024/04/20 07:12:22;;;;;;;;;;;;;;;;;;5191523;27;20011;-66
2024/04/20 07:14:50;;;;;;;1.52;0.45;;;;;;;;;;5175143;26;19944;-65
2024/04/20 07:17:21;;;;;;;;;;;;;;;;;;5183978;26;20019;-64
2024/04/20 07:20:35;;;;;;;2.53;0.47;;;;;;;;;;5178736;27;19956;-65
2024/04/20 07:25:47;;;;;;;3.35;0.65;;;;;;;;;;5189940;26;20006;-66
2024/04/20 07:28:21;;;;;;;4.35;0.55;;;;;;;;;;5216618;26;20018;-67
2024/04/20 07:30:49;;;;;;;3.30;0.65;;;;;;;;;;5210856;26;20018;-67
2024/04/20 07:33:21;;;;;;;7.05;0.68;;;;;;;;;;5213635;26;20078;-67
2024/04/20 07:36:00;;;;;;;4.20;0.60;;;;;;;;;;5133372;26;20016;-66
2024/04/20 07:38:30;;;;;;;3.30;0.82;;;;;;;;;;5184845;26;20019;-67
2024/04/20 07:40:58;;;;;;;1.67;0.40;;;;;;;;;;5213679;26;20007;-67
2024/04/20 07:43:27;;;;;;;1.83;0.45;;;;;;;;;;5213967;26;20007;-67
2024/04/20 07:45:55;;;;;;;;;;;;;;;;;;5243569;26;20001;-67
2024/04/20 07:48:27;;;;;;;6.53;0.77;;;;;;;;;;5214384;26;19928;-65
2024/04/20 07:50:55;;;;;;;3.97;0.70;;;;;;;;;;5220847;27;20003;-65
2024/04/20 07:53:23;;;;;;;1.58;0.50;;;;;;;;;;5206953;26;20026;-67
2024/04/20 07:55:56;;;;;;;0.20;0.20;;;;;;;;;;5195399;26;20006;-67
2024/04/20 07:58:30;;;;;;;5.80;0.75;;;;;;;;;;5179238;27;20027;-65
2024/04/20 08:00:59;;;;;;;5.47;0.75;;;;;;;;;;5174569;26;20016;-64
2024/04/20 08:03:31;;;;;;;2.75;0.43;;;;;;;;;;5178512;27;20004;-65
2024/04/20 08:05:59;;;;;;;0.98;0.35;;;;;;;;;;5171436;26;20016;-64
2024/04/20 08:08:30;;;;;;;6.03;0.93;;;;;;;;;;5178009;26;20043;-63
2024/04/20 08:10:59;;;;;;;4.03;0.65;;;;;;;;;;5186190;26;20004;-67
2024/04/20 08:13:31;;;;;;;3.88;0.88;;;;;;;;;;5183745;27;20011;-64
2024/04/20 08:16:02;;;;;;;2.90;0.73;;;;;;;;;;5167324;26;20007;-64
2024/04/20 08:18:33;;;;;;;2.25;0.77;;;;;;;;;;5177129;26;20154;-63
2024/04/20 08:21:01;;;;;;;6.95;1.15;;;;;;;;;;5189023;26;20108;-63
2024/04/20 08:23:30;;;;;;;0.45;0.30;;;;;;;;;;5180541;26;20007;-65
2024/04/20 08:25:58;;;;;;;8.20;0.75;;;;;;;;;;5170542;26;20093;-64
2024/04/20 08:28:26;;;;;;;3.33;0.47;;;;;;;;;;5174672;26;19999;-64
2024/04/20 08:30:55;;;;;;;3.58;0.55;;;;;;;;;;5185183;26;20022;-66
2024/04/20 08:33:20;;;;;;;;;;;;;;;;;;5172131;26;20011;-64
2024/04/20 08:35:54;;;;;;;2.22;0.30;;;;;;;;;;5166714;26;19966;-65
2024/04/20 08:38:25;;;;;;;1.70;0.73;;;;;;;;;;5182869;26;20031;-65
2024/04/20 08:40:59;;;;;;;1.40;0.77;;;;;;;;;;5189063;27;20008;-66
2024/04/20 08:43:30;;;;;;;2.05;0.43;;;;;;;;;;5174487;27;20004;-65
2024/04/20 08:45:59;;;;;;;5.88;0.70;;;;;;;;;;5167241;27;20096;-65
2024/04/20 08:48:30;;;;;;;3.15;0.60;;;;;;;;;;5168861;27;20004;-66
2024/04/20 08:51:03;;;;;;;2.03;0.70;;;;;;;;;;5173971;27;20019;-65
2024/04/20 08:53:33;;;;;;;3.40;0.50;;;;;;;;;;5179302;27;20003;-65
2024/04/20 08:56:04;;;;;;;1.73;0.50;;;;;;;;;;5168074;26;20007;-66
2024/04/20 08:58:32;;;;;;;2.40;0.30;;;;;;;;;;5159685;27;20008;-65
2024/04/20 09:01:03;;;;;;;4.18;0.80;;;;;;;;;;5177058;26;20019;-66
2024/04/20 09:03:31;;;;;;;6.15;1.20;;;;;;;;;;5174349;27;20156;-65
2024/04/20 09:06:02;;;;;;;3.92;0.70;;;;;;;;;;5154680;26;20019;-65
2024/04/20 09:08:33;;;;;;;3.60;0.40;;;;;;;;;;5161938;26;20012;-64
2024/04/20 09:11:01;;;;;;;8.60;0.77;;;;;;;;;;5165985;26;20019;-65
2024/04/20 09:13:32;;;;;;;6.50;0.88;;;;;;;;;;5166899;27;20051;-65
2024/04/20 09:16:04;;;;;;;12.30;3.05;;;;;;;;;;5167143;27;20003;-65
2024/04/20 09:18:32;;;;;;;4.47;0.68;;;;;;;;;;5171462;27;20023;-65
2024/04/20 09:21:03;;;;;;;5.30;1.00;;;;;;;;;;5183415;26;20015;-66
2024/04/20 09:23:31;;;;;;;3.75;0.80;;;;;;;;;;5186054;27;20066;-66
2024/04/20 09:26:00;;;;;;;6.13;1.17;;;;;;;;;;5181458;27;20008;-66
2024/04/20 09:28:32;;;;;;;5.20;1.30;;;;;;;;;;5157544;26;20035;-65
2024/04/20 09:31:00;;;;;;;8.27;1.95;;;;;;;;;;5189666;27;20140;-67
2024/04/20 09:33:29;;;;;;;5.13;1.50;;;;;;;;;;5159540;27;20193;-68
2024/04/20 09:35:57;;;;;;;7.00;2.30;;;;;;;;;;5166902;26;20034;-67
2024/04/20 09:38:30;;;;;;;4.55;0.73;;;;;;;;;;5180489;27;20012;-67
2024/04/20 09:41:00;;;;;;;9.88;1.48;;;;;;;;;;5190250;26;20082;-66
2024/04/20 09:43:30;;;;;;;2.20;0.70;;;;;;;;;;5191449;27;20101;-68
2024/04/20 09:46:00;;;;;;;5.13;0.85;;;;;;;;;;5178419;26;20000;-67
2024/04/20 09:48:33;;;;;;;7.82;1.27;;;;;;;;;;5171956;26;20008;-67
2024/04/20 09:51:11;;;;;;;2.20;0.60;;;;;;;;;;5188958;26;20008;-66
2024/04/20 09:53:41;;;;;;;5.78;0.73;;;;;;;;;;5186177;27;20065;-65
2024/04/20 09:56:17;;;;;;;2.85;0.60;;;;;;;;;;5174871;26;20230;-65
2024/04/20 09:58:52;;;;;;;8.25;1.20;;;;;;;;;;5168037;27;20517;-67
2024/04/20 10:01:21;;;;;;;5.63;0.88;;;;;;;;;;5174770;26;20013;-67
2024/04/20 10:03:53;;;;;;;7.57;1.10;;;;;;;;;;5154929;27;20105;-68
2024/04/20 10:06:22;;;;;;;13.30;1.95;;;;;;;;;;5181645;27;20030;-66
2024/04/20 10:08:54;;;;;;;7.15;0.88;;;;;;;;;;5205812;26;20102;-66
2024/04/20 10:11:24;;;;;;;8.40;0.95;;;;;;;;;;5208105;26;19999;-67
2024/04/20 10:13:54;;;;;;;7.75;0.85;;;;;;;;;;5199342;26;20023;-67
2024/04/20 10:16:23;;;;;;;10.07;1.20;;;;;;;;;;5243598;26;20003;-64
2024/04/20 10:18:52;;;;;;;9.07;1.60;;;;;;;;;;5200169;26;20040;-67
2024/04/20 10:21:20;;;;;;;10.55;2.08;;;;;;;;;;5204410;26;20962;-67
2024/04/20 10:23:49;;;;;;;5.68;1.00;;;;;;;;;;5195303;26;20013;-67
2024/04/20 10:26:30;;;;;;;5.50;0.88;;;;;;;;;;5155772;26;20051;-66
2024/04/20 10:29:07;;;;;;;10.43;1.55;;;;;;;;;;5165187;26;20063;-67
2024/04/20 10:31:36;;;;;;;5.18;0.80;;;;;;;;;;5186534;27;20012;-64
2024/04/20 10:34:06;;;;;;;5.00;1.20;;;;;;;;;;5174374;26;20023;-67
2024/04/20 10:36:34;;;;;;;6.50;1.20;;;;;;;;;;5170928;26;20079;-67
2024/04/20 10:39:06;;;;;;;7.95;1.13;;;;;;;;;;5188921;27;20008;-67
2024/04/20 10:41:41;;;;;;;6.72;1.35;;;;;;;;;;5184595;26;20019;-65
2024/04/20 10:44:15;;;;;;;8.10;0.93;;;;;;;;;;5171573;27;20048;-66
2024/04/20 10:46:53;;;;;;;4.75;0.70;;;;;;;;;;5153112;26;20090;-68
2024/04/20 10:49:22;;;;;;;8.48;0.75;;;;;;;;;;5178834;26;20012;-67
2024/04/20 10:51:55;;;;;;;5.07;0.55;;;;;;;;;;5186776;26;20016;-65
2024/04/20 10:54:28;;;;;;;3.75;0.93;;;;;;;;;;5159530;27;20017;-65
2024/04/20 10:57:01;;;;;;;3.72;0.70;;;;;;;;;;5195194;27;20048;-66
2024/04/20 10:59:29;;;;;;;8.23;1.05;;;;;;;;;;5179030;26;20004;-66
2024/04/20 11:01:57;;;;;;;3.13;0.55;;;;;;;;;;5190262;27;20086;-66
2024/04/20 11:04:26;;;;;;;4.75;0.73;;;;;;;;;;5172112;26;20059;-66
2024/04/20 11:07:06;;;;;;;2.30;0.60;;;;;;;;;;5189795;26;20157;-66
2024/04/20 11:09:35;;;;;;;5.32;0.65;;;;;;;;;;5190622;26;20018;-65
2024/04/20 11:12:09;;;;;;;5.70;1.70;;;;;;;;;;5191411;26;20007;-66
2024/04/20 11:14:37;;;;;;;7.25;1.63;;;;;;;;;;5176977;26;20103;-65
2024/04/20 11:17:06;;;;;;;3.03;1.17;;;;;;;;;;5175400;26;20109;-65
2024/04/20 11:19:38;;;;;;;2.15;0.75;;;;;;;;;;5190488;26;20012;-67
2024/04/20 11:22:07;;;;;;;9.98;0.88;;;;;;;;;;5189044;27;20047;-65
2024/04/20 11:24:36;;;;;;;5.28;0.80;;;;;;;;;;5167257;26;20153;-64
2024/04/20 11:27:12;;;;;;;9.93;0.95;;;;;;;;;;5177594;26;20019;-61
2024/04/20 11:29:40;;;;;;;6.38;1.25;;;;;;;;;;5185166;26;20026;-64
2024/04/20 11:32:10;;;;;;;;;;;;;;;;;;5183376;26;20015;-63
2024/04/20 11:34:38;;;;;;;6.60;0.65;;;;;;;;;;5144663;26;19929;-66
2024/04/20 11:37:09;;;;;;;4.20;0.88;;;;;;;;;;5182030;26;20086;-66
2024/04/20 11:39:38;;;;;;;6.72;1.13;;;;;;;;;;5184147;26;20171;-66
2024/04/20 11:42:09;;;;;;;5.65;1.00;;;;;;;;;;5178497;27;20028;-63
2024/04/20 11:44:38;;;;;;;10.45;1.05;;;;;;;;;;5166069;26;20330;-65
2024/04/20 11:47:13;;;;;;;;;;;;;;;;;;5179749;26;20750;-66
2024/04/20 11:49:41;;;;;;;;;;;;;;;;;;5165933;27;19928;-64
2024/04/20 11:55:04;;;;;;;;;;;;;;;;;;5184548;26;19936;-67
2024/04/20 11:57:34;;;;;;;;;;;;;;;;;;5218187;27;19928;-63
2024/04/20 12:00:05;;;;;;;;;;;;;;;;;;5230304;27;20028;-65
2024/04/20 12:02:33;;;;;;;;;;;;;;;;;;5213563;26;19936;-63
2024/04/20 12:05:02;;;;;;;;;;;;;;;;;;5210015;26;19926;-67
2024/04/20 12:07:31;;;;;;;;;;;;;;;;;;5225631;26;19943;-65
2024/04/20 12:09:59;;;;;;;;;;;;;;;;;;5178605;27;19936;-66
2024/04/20 12:12:28;;;;;;;;;;;;;;;;;;5170230;26;19947;-64
2024/04/20 12:14:58;;;;;;;;;;;;;;;;;;5180328;26;21054;-67
2024/04/20 12:17:27;;;;;;;;;;;;;;;;;;5215121;26;19991;-67
2024/04/20 12:19:55;;;;;;;;;;;;;;;;;;5197897;27;19935;-65
2024/04/20 12:22:23;;;;;;;;;;;;;;;;;;5193967;26;19978;-65
2024/04/20 12:24:53;;;;;;;;;;;;;;;;;;5187766;26;19966;-65
2024/04/20 12:27:21;;;;;;;;;;;;;;;;;;5181277;26;19987;-65
2024/04/20 12:29:50;;;;;;;;;;;;;;;;;;5177526;27;19943;-64
2024/04/20 12:32:23;;;;;;;;;;;;;;;;;;5179554;27;19940;-65
2024/04/20 12:34:51;;;;;;;;;;;;;;;;;;5169417;26;19934;-65
2024/04/20 12:37:19;;;;;;;;;;;;;;;;;;5186876;27;19940;-62
2024/04/20 12:39:48;;;;;;;;;;;;;;;;;;5182079;27;20010;-64
2024/04/20 12:42:30;;;;;;;;;;;;;;;;;;5177521;27;20093;-62
2024/04/20 12:45:02;;;;;;;;;;;;;;;;;;5136458;26;19978;-63
2024/04/20 12:47:36;;;;;;;;;;;;;;;;;;5212946;26;21017;-64
2024/04/20 12:50:04;;;;;;;;;;;;;;;;;;5214885;27;19927;-64
2024/04/20 12:52:42;;;;;;;;;;;;;;;;;;5205281;26;19946;-63
2024/04/20 12:55:14;;;;;;;;;;;;;;;;;;5156468;26;19968;-64
2024/04/20 12:57:42;;;;;;;;;;;;;;;;;;5185147;27;19982;-63
2024/04/20 13:00:11;;;;;;;;;;;;;;;;;;5180447;27;20457;-64
2024/04/20 13:02:42;;;;;;;;;;;;;;;;;;5175172;26;19956;-65
2024/04/20 13:05:12;;;;;;;;;;;;;;;;;;5171433;26;19934;-65
2024/04/20 13:07:42;;;;;;;;;;;;;;;;;;5236145;26;19935;-65
2024/04/20 13:10:18;;;;;;;;;;;;;;;;;;5211645;27;19952;-65
2024/04/20 13:12:47;;;;;;;;;;;;;;;;;;5216433;26;20002;-65
2024/04/20 13:15:15;;;;;;;;;;;;;;;;;;5187718;26;19979;-64
2024/04/20 13:17:46;;;;;;;;;;;;;;;;;;5197985;27;19936;-65
2024/04/20 13:20:14;;;;;;;;;;;;;;;;;;5194813;26;20062;-66
2024/04/20 13:22:43;;;;;;;;;;;;;;;;;;5193368;26;19958;-61
2024/04/20 13:25:11;;;;;;;;;;;;;;;;;;5161345;26;19947;-63
2024/04/20 13:27:39;;;;;;;;;;;;;;;;;;5209746;27;19955;-64
2024/04/20 13:30:08;;;;;;;;;;;;;;;;;;5211229;26;19963;-63
2024/04/20 13:32:36;;;;;;;;;;;;;;;;;;5210749;27;19935;-62
2024/04/20 13:35:09;;;;;;;;;;;;;;;;;;5185563;26;19987;-64
2024/04/20 13:37:37;;;;;;;;;;;;;;;;;;5197379;26;19935;-64
2024/04/20 13:40:08;;;;;;;;;;;;;;;;;;5196904;26;19935;-64
2024/04/20 13:42:37;;;;;;;;;;;;;;;;;;5193554;26;20383;-63
2024/04/20 13:45:06;;;;;;;;;;;;;;;;;;5173655;26;19935;-64
2024/04/20 13:47:34;;;;;;;;;;;;;;;;;;5185790;26;20014;-63
2024/04/20 13:50:02;;;;;;;;;;;;;;;;;;5179451;27;20000;-64
2024/04/20 13:52:33;;;;;;;;;;;;;;;;;;5172685;27;19968;-64
2024/04/20 13:55:02;;;;;;;;;;;;;;;;;;5166321;26;19948;-64
2024/04/20 13:57:31;;;;;;;;;;;;;;;;;;5178307;26;19963;-63
2024/04/20 13:59:59;;;;;;;;;;;;;;;;;;5181361;27;19961;-62
2024/04/20 14:02:27;;;;;;;;;;;;;;;;;;5171915;26;20003;-64
2024/04/20 14:04:55;;;;;;;;;;;;;;;;;;5172756;26;19935;-63
2024/04/20 14:07:23;;;;;;;;;;;;;;;;;;5212209;26;20033;-62
2024/04/20 14:09:54;;;;;;;;;;;;;;;;;;5194791;26;19951;-63
2024/04/20 14:12:24;;;;;;;;;;;;;;;;;;5194149;27;19935;-63
2024/04/20 14:14:53;;;;;;;;;;;;;;;;;;5185691;26;19942;-64
2024/04/20 14:17:22;;;;;;;;;;;;;;;;;;5177217;27;19992;-63
2024/04/20 14:19:50;;;;;;;;;;;;;;;;;;5177568;27;19972;-64
2024/04/20 14:22:18;;;;;;;;;;;;;;;;;;5177436;26;19987;-63
2024/04/20 14:24:46;;;;;;;;;;;;;;;;;;5175292;26;19942;-65
2024/04/20 14:27:17;;;;;;;;;;;;;;;;;;5181112;27;19936;-65
2024/04/20 14:29:45;;;;;;;;;;;;;;;;;;5184727;27;20014;-63
2024/04/20 14:32:14;;;;;;;;;;;;;;;;;;5187243;26;20016;-64
2024/04/20 14:34:42;;;;;;;;;;;;;;;;;;5148796;27;19929;-64
2024/04/20 14:37:10;;;;;;;;;;;;;;;;;;5203716;26;20111;-65
2024/04/20 14:39:39;;;;;;;;;;;;;;;;;;5226024;26;19945;-64
2024/04/20 14:42:07;;;;;;;;;;;;;;;;;;5201526;26;19956;-63
2024/04/20 14:44:39;;;;;;;;;;;;;;;;;;5194684;26;19999;-64
2024/04/20 14:47:07;;;;;;;;;;;;;;;;;;5156754;27;20017;-65
2024/04/20 14:49:39;;;;;;;;;;;;;;;;;;5189575;26;19935;-64
2024/04/20 14:52:08;;;;;;;;;;;;;;;;;;5169025;27;19928;-65
2024/04/20 14:54:37;;;;;;;;;;;;;;;;;;5176421;26;20120;-65
2024/04/20 14:57:05;;;;;;;;;;;;;;;;;;5173597;27;19942;-65
2024/04/20 14:59:33;;;;;;;;;;;;;;;;;;5166669;26;19969;-63
2024/04/20 15:02:04;;;;;;;;;;;;;;;;;;5181223;27;19944;-65
2024/04/20 15:04:33;;;;;;;;;;;;;;;;;;5158224;27;19929;-64
2024/04/20 15:07:01;;;;;;;;;;;;;;;;;;5163836;26;19928;-63
2024/04/20 15:09:30;;;;;;;;;;;;;;;;;;5172129;27;20261;-65
2024/04/20 15:12:09;;;;;;;;;;;;;;;;;;5190133;27;19967;-64
2024/04/20 15:14:37;;;;;;;;;;;;;;;;;;5164679;27;19927;-64
2024/04/20 15:17:08;;;;;;;;;;;;;;;;;;5210599;26;19993;-64
2024/04/20 15:19:37;;;;;;;;;;;;;;;;;;5184728;27;20325;-64
2024/04/20 15:22:05;;;;;;;;;;;;;;;;;;5188627;26;19944;-62
2024/04/20 15:24:33;;;;;;;;;;;;;;;;;;5168023;26;19947;-64
2024/04/20 15:27:01;;;;;;;;;;;;;;;;;;5155200;27;19928;-64
2024/04/20 15:29:29;;;;;;;;;;;;;;;;;;5170939;27;19956;-63
2024/04/20 15:31:57;;;;;;;;;;;;;;;;;;5170354;26;19928;-63
2024/04/20 15:34:28;;;;;;;;;;;;;;;;;;5152822;26;19940;-64
2024/04/20 15:36:56;;;;;;;;;;;;;;;;;;5171430;26;19928;-64
2024/04/20 15:39:24;;;;;;;;;;;;;;;;;;5182330;26;20480;-64
2024/04/20 15:41:53;;;;;;;;;;;;;;;;;;5167426;27;19936;-65
2024/04/20 15:44:27;;;;;;;;;;;;;;;;;;5154114;26;19929;-64
2024/04/20 15:46:56;;;;;;;;;;;;;;;;;;5207876;26;19963;-66
2024/04/20 15:49:24;;;;;;;;;;;;;;;;;;5177172;27;19935;-63